sensor_id;sensor_type;location;lat;lon;timestamp;pressure;altitude;pressure_sealevel;temperature
68745;BMP180;73143;45.456;11.064;2023-12-29T00:00:19;101359.40;;;9.00
68745;BMP180;73143;45.456;11.064;2023-12-29T00:02:57;101358.00;;;9.00
68745;BMP180;73143;45.456;11.064;2023-12-29T00:05:35;101352.00;;;9.00
68745;BMP180;73143;45.456;11.064;2023-12-29T00:08:14;101354.00;;;9.00
68745;BMP180;73143;45.456;11.064;2023-12-29T00:10:52;101349.80;;;9.00
68745;BMP180;73143;45.456;11.064;2023-12-29T00:13:32;101352.60;;;9.00
68745;BMP180;73143;45.456;11.064;2023-12-29T00:16:10;101347.40;;;9.00
68745;BMP180;73143;45.456;11.064;2023-12-29T00:18:49;101347.00;;;9.00
68745;BMP180;73143;45.456;11.064;2023-12-29T00:21:28;101346.00;;;9.00
68745;BMP180;73143;45.456;11.064;2023-12-29T00:24:07;101346.00;;;9.00
68745;BMP180;73143;45.456;11.064;2023-12-29T00:26:44;101345.20;;;9.00
68745;BMP180;73143;45.456;11.064;2023-12-29T00:29:21;101350.00;;;9.00
68745;BMP180;73143;45.456;11.064;2023-12-29T00:31:59;101345.80;;;9.00
68745;BMP180;73143;45.456;11.064;2023-12-29T00:34:38;101338.20;;;9.00
68745;BMP180;73143;45.456;11.064;2023-12-29T00:37:15;101344.40;;;9.00
68745;BMP180;73143;45.456;11.064;2023-12-29T00:39:52;101345.00;;;9.00
68745;BMP180;73143;45.456;11.064;2023-12-29T00:42:29;101344.00;;;9.00
68745;BMP180;73143;45.456;11.064;2023-12-29T00:45:10;101344.80;;;9.00
68745;BMP180;73143;45.456;11.064;2023-12-29T00:47:47;101349.20;;;9.00
68745;BMP180;73143;45.456;11.064;2023-12-29T00:50:24;101342.60;;;9.00
68745;BMP180;73143;45.456;11.064;2023-12-29T00:53:01;101335.00;;;9.00
68745;BMP180;73143;45.456;11.064;2023-12-29T00:55:38;101334.60;;;9.00
68745;BMP180;73143;45.456;11.064;2023-12-29T00:58:16;101337.00;;;9.00
68745;BMP180;73143;45.456;11.064;2023-12-29T01:00:54;101335.40;;;9.02
68745;BMP180;73143;45.456;11.064;2023-12-29T01:03:32;101338.20;;;9.00
68745;BMP180;73143;45.456;11.064;2023-12-29T01:06:11;101339.00;;;9.00
68745;BMP180;73143;45.456;11.064;2023-12-29T01:08:48;101337.20;;;8.92
68745;BMP180;73143;45.456;11.064;2023-12-29T01:11:25;101340.60;;;8.90
68745;BMP180;73143;45.456;11.064;2023-12-29T01:14:02;101341.80;;;8.90
68745;BMP180;73143;45.456;11.064;2023-12-29T01:16:39;101335.20;;;8.80
68745;BMP180;73143;45.456;11.064;2023-12-29T01:19:18;101332.20;;;8.80
68745;BMP180;73143;45.456;11.064;2023-12-29T01:21:55;101327.80;;;8.80
68745;BMP180;73143;45.456;11.064;2023-12-29T01:24:35;101329.80;;;8.90
68745;BMP180;73143;45.456;11.064;2023-12-29T01:27:18;101326.20;;;8.90
68745;BMP180;73143;45.456;11.064;2023-12-29T01:29:55;101326.60;;;8.90
68745;BMP180;73143;45.456;11.064;2023-12-29T01:32:32;101324.40;;;8.90
68745;BMP180;73143;45.456;11.064;2023-12-29T01:35:12;101324.40;;;8.90
68745;BMP180;73143;45.456;11.064;2023-12-29T01:37:52;101322.40;;;8.92
68745;BMP180;73143;45.456;11.064;2023-12-29T01:40:30;101325.00;;;8.96
68745;BMP180;73143;45.456;11.064;2023-12-29T01:43:08;101326.00;;;8.96
68745;BMP180;73143;45.456;11.064;2023-12-29T01:45:45;101324.20;;;8.90
68745;BMP180;73143;45.456;11.064;2023-12-29T01:48:32;101324.60;;;8.98
68745;BMP180;73143;45.456;11.064;2023-12-29T01:51:09;101323.00;;;9.00
68745;BMP180;73143;45.456;11.064;2023-12-29T01:53:46;101322.80;;;9.00
68745;BMP180;73143;45.456;11.064;2023-12-29T01:56:25;101310.00;;;9.00
68745;BMP180;73143;45.456;11.064;2023-12-29T01:59:03;101307.20;;;9.00
68745;BMP180;73143;45.456;11.064;2023-12-29T02:01:48;101303.40;;;9.00
68745;BMP180;73143;45.456;11.064;2023-12-29T02:04:28;101307.20;;;9.00
68745;BMP180;73143;45.456;11.064;2023-12-29T02:07:06;101300.20;;;9.00
68745;BMP180;73143;45.456;11.064;2023-12-29T02:09:43;101299.00;;;9.00
68745;BMP180;73143;45.456;11.064;2023-12-29T02:12:23;101294.40;;;9.00
68745;BMP180;73143;45.456;11.064;2023-12-29T02:14:59;101295.40;;;9.00
68745;BMP180;73143;45.456;11.064;2023-12-29T02:17:43;101296.80;;;9.00
68745;BMP180;73143;45.456;11.064;2023-12-29T02:20:22;101300.60;;;9.00
68745;BMP180;73143;45.456;11.064;2023-12-29T02:22:59;101302.40;;;9.00
68745;BMP180;73143;45.456;11.064;2023-12-29T02:25:38;101296.20;;;9.00
68745;BMP180;73143;45.456;11.064;2023-12-29T02:28:25;101294.80;;;9.00
68745;BMP180;73143;45.456;11.064;2023-12-29T02:31:09;101290.20;;;9.00
68745;BMP180;73143;45.456;11.064;2023-12-29T02:33:48;101288.00;;;9.00
68745;BMP180;73143;45.456;11.064;2023-12-29T02:36:27;101285.20;;;9.00
68745;BMP180;73143;45.456;11.064;2023-12-29T02:39:04;101282.80;;;9.00
68745;BMP180;73143;45.456;11.064;2023-12-29T02:41:42;101277.40;;;9.00
68745;BMP180;73143;45.456;11.064;2023-12-29T02:44:19;101274.40;;;9.00
68745;BMP180;73143;45.456;11.064;2023-12-29T02:46:56;101269.00;;;9.00
68745;BMP180;73143;45.456;11.064;2023-12-29T02:49:33;101267.00;;;9.02
68745;BMP180;73143;45.456;11.064;2023-12-29T02:52:12;101260.60;;;9.00
68745;BMP180;73143;45.456;11.064;2023-12-29T02:54:49;101259.00;;;9.00
68745;BMP180;73143;45.456;11.064;2023-12-29T02:57:26;101257.00;;;9.00
68745;BMP180;73143;45.456;11.064;2023-12-29T03:00:08;101263.00;;;9.00
68745;BMP180;73143;45.456;11.064;2023-12-29T03:02:46;101262.20;;;8.96
68745;BMP180;73143;45.456;11.064;2023-12-29T03:05:24;101261.80;;;8.90
68745;BMP180;73143;45.456;11.064;2023-12-29T03:08:02;101264.60;;;8.80
68745;BMP180;73143;45.456;11.064;2023-12-29T03:10:39;101256.40;;;8.80
68745;BMP180;73143;45.456;11.064;2023-12-29T03:13:17;101256.40;;;8.70
68745;BMP180;73143;45.456;11.064;2023-12-29T03:15:53;101251.40;;;8.70
68745;BMP180;73143;45.456;11.064;2023-12-29T03:18:30;101251.00;;;8.70
68745;BMP180;73143;45.456;11.064;2023-12-29T03:21:07;101246.40;;;8.70
68745;BMP180;73143;45.456;11.064;2023-12-29T03:23:44;101247.00;;;8.70
68745;BMP180;73143;45.456;11.064;2023-12-29T03:26:20;101241.00;;;8.70
68745;BMP180;73143;45.456;11.064;2023-12-29T03:28:59;101235.40;;;8.78
68745;BMP180;73143;45.456;11.064;2023-12-29T03:31:36;101234.40;;;8.74
68745;BMP180;73143;45.456;11.064;2023-12-29T03:34:13;101240.80;;;8.80
68745;BMP180;73143;45.456;11.064;2023-12-29T03:36:49;101239.20;;;8.80
68745;BMP180;73143;45.456;11.064;2023-12-29T03:39:28;101240.00;;;8.80
68745;BMP180;73143;45.456;11.064;2023-12-29T03:42:11;101235.20;;;8.90
68745;BMP180;73143;45.456;11.064;2023-12-29T03:44:48;101230.20;;;8.90
68745;BMP180;73143;45.456;11.064;2023-12-29T03:47:28;101226.80;;;8.90
68745;BMP180;73143;45.456;11.064;2023-12-29T03:50:08;101223.80;;;8.90
68745;BMP180;73143;45.456;11.064;2023-12-29T03:52:45;101225.80;;;8.90
68745;BMP180;73143;45.456;11.064;2023-12-29T03:55:21;101225.80;;;8.90
68745;BMP180;73143;45.456;11.064;2023-12-29T03:58:00;101221.80;;;9.00
68745;BMP180;73143;45.456;11.064;2023-12-29T04:00:38;101222.40;;;9.00
68745;BMP180;73143;45.456;11.064;2023-12-29T04:03:16;101217.80;;;9.00
68745;BMP180;73143;45.456;11.064;2023-12-29T04:05:53;101222.80;;;9.00
68745;BMP180;73143;45.456;11.064;2023-12-29T04:08:29;101223.00;;;9.00
68745;BMP180;73143;45.456;11.064;2023-12-29T04:11:06;101221.60;;;9.00
68745;BMP180;73143;45.456;11.064;2023-12-29T04:13:42;101219.80;;;9.00
68745;BMP180;73143;45.456;11.064;2023-12-29T04:16:18;101213.40;;;9.00
68745;BMP180;73143;45.456;11.064;2023-12-29T04:18:55;101211.60;;;9.00
68745;BMP180;73143;45.456;11.064;2023-12-29T04:21:32;101211.00;;;9.00
68745;BMP180;73143;45.456;11.064;2023-12-29T04:24:11;101203.20;;;9.06
68745;BMP180;73143;45.456;11.064;2023-12-29T04:26:51;101201.60;;;9.08
68745;BMP180;73143;45.456;11.064;2023-12-29T04:29:29;101207.40;;;9.10
68745;BMP180;73143;45.456;11.064;2023-12-29T04:32:07;101207.40;;;9.10
68745;BMP180;73143;45.456;11.064;2023-12-29T04:34:45;101206.20;;;9.10
68745;BMP180;73143;45.456;11.064;2023-12-29T04:37:22;101205.40;;;9.10
68745;BMP180;73143;45.456;11.064;2023-12-29T04:40:00;101206.40;;;9.10
68745;BMP180;73143;45.456;11.064;2023-12-29T04:42:38;101202.40;;;9.08
68745;BMP180;73143;45.456;11.064;2023-12-29T04:45:16;101204.40;;;9.00
68745;BMP180;73143;45.456;11.064;2023-12-29T04:47:52;101202.80;;;9.00
68745;BMP180;73143;45.456;11.064;2023-12-29T04:50:29;101201.00;;;9.00
68745;BMP180;73143;45.456;11.064;2023-12-29T04:53:07;101198.40;;;9.00
68745;BMP180;73143;45.456;11.064;2023-12-29T04:55:45;101195.40;;;8.92
68745;BMP180;73143;45.456;11.064;2023-12-29T04:58:22;101200.00;;;8.90
68745;BMP180;73143;45.456;11.064;2023-12-29T05:00:59;101201.80;;;8.92
68745;BMP180;73143;45.456;11.064;2023-12-29T05:03:35;101198.20;;;8.90
68745;BMP180;73143;45.456;11.064;2023-12-29T05:06:12;101196.20;;;8.94
68745;BMP180;73143;45.456;11.064;2023-12-29T05:08:50;101194.20;;;8.96
68745;BMP180;73143;45.456;11.064;2023-12-29T05:11:26;101195.60;;;8.98
68745;BMP180;73143;45.456;11.064;2023-12-29T05:14:03;101197.80;;;8.90
68745;BMP180;73143;45.456;11.064;2023-12-29T05:16:42;101195.20;;;8.90
68745;BMP180;73143;45.456;11.064;2023-12-29T05:19:18;101200.00;;;8.90
68745;BMP180;73143;45.456;11.064;2023-12-29T05:21:56;101202.80;;;8.90
68745;BMP180;73143;45.456;11.064;2023-12-29T05:24:32;101195.60;;;8.90
68745;BMP180;73143;45.456;11.064;2023-12-29T05:27:11;101194.40;;;8.90
68745;BMP180;73143;45.456;11.064;2023-12-29T05:29:48;101189.40;;;8.90
68745;BMP180;73143;45.456;11.064;2023-12-29T05:32:26;101188.40;;;8.90
68745;BMP180;73143;45.456;11.064;2023-12-29T05:35:02;101187.80;;;8.90
68745;BMP180;73143;45.456;11.064;2023-12-29T05:37:40;101184.40;;;8.90
68745;BMP180;73143;45.456;11.064;2023-12-29T05:40:19;101184.80;;;8.90
68745;BMP180;73143;45.456;11.064;2023-12-29T05:42:57;101182.40;;;8.90
68745;BMP180;73143;45.456;11.064;2023-12-29T05:45:33;101186.00;;;8.90
68745;BMP180;73143;45.456;11.064;2023-12-29T05:48:13;101183.40;;;8.90
68745;BMP180;73143;45.456;11.064;2023-12-29T05:50:50;101181.20;;;8.90
68745;BMP180;73143;45.456;11.064;2023-12-29T05:53:29;101187.00;;;8.90
68745;BMP180;73143;45.456;11.064;2023-12-29T05:56:07;101191.40;;;8.90
68745;BMP180;73143;45.456;11.064;2023-12-29T05:58:46;101194.00;;;8.90
68745;BMP180;73143;45.456;11.064;2023-12-29T06:01:24;101198.00;;;8.90
68745;BMP180;73143;45.456;11.064;2023-12-29T06:04:01;101199.80;;;8.90
68745;BMP180;73143;45.456;11.064;2023-12-29T06:06:38;101200.20;;;8.90
68745;BMP180;73143;45.456;11.064;2023-12-29T06:09:17;101209.80;;;8.90
68745;BMP180;73143;45.456;11.064;2023-12-29T06:11:54;101209.00;;;8.90
68745;BMP180;73143;45.456;11.064;2023-12-29T06:14:31;101210.80;;;8.90
68745;BMP180;73143;45.456;11.064;2023-12-29T06:17:08;101211.80;;;8.80
68745;BMP180;73143;45.456;11.064;2023-12-29T06:19:44;101211.60;;;8.80
68745;BMP180;73143;45.456;11.064;2023-12-29T06:22:21;101211.20;;;8.70
68745;BMP180;73143;45.456;11.064;2023-12-29T06:25:00;101216.20;;;8.60
68745;BMP180;73143;45.456;11.064;2023-12-29T06:27:37;101219.80;;;8.60
68745;BMP180;73143;45.456;11.064;2023-12-29T06:30:18;101210.80;;;8.60
68745;BMP180;73143;45.456;11.064;2023-12-29T06:32:54;101212.00;;;8.60
68745;BMP180;73143;45.456;11.064;2023-12-29T06:35:32;101210.80;;;8.70
68745;BMP180;73143;45.456;11.064;2023-12-29T06:38:09;101205.80;;;8.70
68745;BMP180;73143;45.456;11.064;2023-12-29T06:40:47;101210.00;;;8.70
68745;BMP180;73143;45.456;11.064;2023-12-29T06:43:24;101208.80;;;8.70
68745;BMP180;73143;45.456;11.064;2023-12-29T06:46:01;101206.60;;;8.80
68745;BMP180;73143;45.456;11.064;2023-12-29T06:48:38;101209.00;;;8.80
68745;BMP180;73143;45.456;11.064;2023-12-29T06:51:20;101210.60;;;8.80
68745;BMP180;73143;45.456;11.064;2023-12-29T06:53:57;101210.20;;;8.80
68745;BMP180;73143;45.456;11.064;2023-12-29T06:56:34;101214.80;;;8.80
68745;BMP180;73143;45.456;11.064;2023-12-29T06:59:11;101216.20;;;8.80
68745;BMP180;73143;45.456;11.064;2023-12-29T07:01:48;101215.80;;;8.80
68745;BMP180;73143;45.456;11.064;2023-12-29T07:04:26;101218.80;;;8.90
68745;BMP180;73143;45.456;11.064;2023-12-29T07:07:04;101219.80;;;8.90
68745;BMP180;73143;45.456;11.064;2023-12-29T07:09:44;101224.20;;;8.90
68745;BMP180;73143;45.456;11.064;2023-12-29T07:12:21;101222.00;;;8.90
68745;BMP180;73143;45.456;11.064;2023-12-29T07:14:58;101224.00;;;8.90
68745;BMP180;73143;45.456;11.064;2023-12-29T07:17:34;101223.20;;;8.90
68745;BMP180;73143;45.456;11.064;2023-12-29T07:20:14;101229.40;;;8.90
68745;BMP180;73143;45.456;11.064;2023-12-29T07:22:51;101237.00;;;8.90
68745;BMP180;73143;45.456;11.064;2023-12-29T07:25:28;101237.00;;;8.90
68745;BMP180;73143;45.456;11.064;2023-12-29T07:28:06;101233.80;;;8.90
68745;BMP180;73143;45.456;11.064;2023-12-29T07:30:43;101240.40;;;8.90
68745;BMP180;73143;45.456;11.064;2023-12-29T07:33:20;101245.80;;;8.90
68745;BMP180;73143;45.456;11.064;2023-12-29T07:35:59;101246.60;;;8.90
68745;BMP180;73143;45.456;11.064;2023-12-29T07:38:36;101245.00;;;8.90
68745;BMP180;73143;45.456;11.064;2023-12-29T07:41:13;101242.40;;;8.90
68745;BMP180;73143;45.456;11.064;2023-12-29T07:43:50;101245.60;;;8.90
68745;BMP180;73143;45.456;11.064;2023-12-29T07:46:31;101245.20;;;8.90
68745;BMP180;73143;45.456;11.064;2023-12-29T07:49:08;101250.80;;;9.00
68745;BMP180;73143;45.456;11.064;2023-12-29T07:51:48;101252.80;;;9.00
68745;BMP180;73143;45.456;11.064;2023-12-29T07:54:25;101253.80;;;9.00
68745;BMP180;73143;45.456;11.064;2023-12-29T07:57:02;101253.40;;;9.00
68745;BMP180;73143;45.456;11.064;2023-12-29T07:59:39;101259.60;;;9.10
68745;BMP180;73143;45.456;11.064;2023-12-29T08:02:16;101256.80;;;9.10
68745;BMP180;73143;45.456;11.064;2023-12-29T08:04:54;101258.20;;;9.10
68745;BMP180;73143;45.456;11.064;2023-12-29T08:07:31;101259.20;;;9.10
68745;BMP180;73143;45.456;11.064;2023-12-29T08:10:11;101258.00;;;9.10
68745;BMP180;73143;45.456;11.064;2023-12-29T08:12:49;101255.80;;;9.10
68745;BMP180;73143;45.456;11.064;2023-12-29T08:15:26;101257.00;;;9.10
68745;BMP180;73143;45.456;11.064;2023-12-29T08:18:05;101264.60;;;9.10
68745;BMP180;73143;45.456;11.064;2023-12-29T08:20:44;101266.00;;;9.18
68745;BMP180;73143;45.456;11.064;2023-12-29T08:23:21;101267.60;;;9.16
68745;BMP180;73143;45.456;11.064;2023-12-29T08:26:02;101265.00;;;9.20
68745;BMP180;73143;45.456;11.064;2023-12-29T08:28:39;101262.60;;;9.20
68745;BMP180;73143;45.456;11.064;2023-12-29T08:31:17;101267.40;;;9.20
68745;BMP180;73143;45.456;11.064;2023-12-29T08:33:55;101275.00;;;9.20
68745;BMP180;73143;45.456;11.064;2023-12-29T08:36:32;101270.60;;;9.20
68745;BMP180;73143;45.456;11.064;2023-12-29T08:39:11;101271.80;;;9.20
68745;BMP180;73143;45.456;11.064;2023-12-29T08:41:48;101272.80;;;9.20
68745;BMP180;73143;45.456;11.064;2023-12-29T08:44:24;101280.00;;;9.20
68745;BMP180;73143;45.456;11.064;2023-12-29T08:47:00;101290.40;;;9.20
68745;BMP180;73143;45.456;11.064;2023-12-29T08:49:42;101294.60;;;9.30
68745;BMP180;73143;45.456;11.064;2023-12-29T08:52:19;101296.00;;;9.30
68745;BMP180;73143;45.456;11.064;2023-12-29T08:54:56;101296.00;;;9.30
68745;BMP180;73143;45.456;11.064;2023-12-29T08:57:33;101294.40;;;9.30
68745;BMP180;73143;45.456;11.064;2023-12-29T09:00:16;101299.20;;;9.30
68745;BMP180;73143;45.456;11.064;2023-12-29T09:02:54;101296.20;;;9.36
68745;BMP180;73143;45.456;11.064;2023-12-29T09:05:31;101298.80;;;9.40
68745;BMP180;73143;45.456;11.064;2023-12-29T09:08:09;101304.00;;;9.40
68745;BMP180;73143;45.456;11.064;2023-12-29T09:10:46;101303.20;;;9.40
68745;BMP180;73143;45.456;11.064;2023-12-29T09:13:24;101306.00;;;9.40
68745;BMP180;73143;45.456;11.064;2023-12-29T09:16:04;101309.00;;;9.40
68745;BMP180;73143;45.456;11.064;2023-12-29T09:18:41;101313.40;;;9.40
68745;BMP180;73143;45.456;11.064;2023-12-29T09:21:18;101317.20;;;9.48
68745;BMP180;73143;45.456;11.064;2023-12-29T09:23:57;101316.00;;;9.50
68745;BMP180;73143;45.456;11.064;2023-12-29T09:26:34;101314.60;;;9.50
68745;BMP180;73143;45.456;11.064;2023-12-29T09:29:11;101316.80;;;9.50
68745;BMP180;73143;45.456;11.064;2023-12-29T09:31:48;101320.00;;;9.50
68745;BMP180;73143;45.456;11.064;2023-12-29T09:34:24;101320.00;;;9.50
68745;BMP180;73143;45.456;11.064;2023-12-29T09:37:01;101318.60;;;9.50
68745;BMP180;73143;45.456;11.064;2023-12-29T09:39:38;101318.60;;;9.52
68745;BMP180;73143;45.456;11.064;2023-12-29T09:42:21;101319.00;;;9.60
68745;BMP180;73143;45.456;11.064;2023-12-29T09:44:59;101317.40;;;9.60
68745;BMP180;73143;45.456;11.064;2023-12-29T09:47:41;101316.00;;;9.60
68745;BMP180;73143;45.456;11.064;2023-12-29T09:50:19;101320.40;;;9.60
68745;BMP180;73143;45.456;11.064;2023-12-29T09:52:55;101317.80;;;9.60
68745;BMP180;73143;45.456;11.064;2023-12-29T09:55:36;101322.60;;;9.60
68745;BMP180;73143;45.456;11.064;2023-12-29T09:58:14;101314.80;;;9.60
68745;BMP180;73143;45.456;11.064;2023-12-29T10:00:54;101310.40;;;9.60
68745;BMP180;73143;45.456;11.064;2023-12-29T10:03:32;101312.00;;;9.60
68745;BMP180;73143;45.456;11.064;2023-12-29T10:06:11;101311.60;;;9.70
68745;BMP180;73143;45.456;11.064;2023-12-29T10:08:50;101318.00;;;9.70
68745;BMP180;73143;45.456;11.064;2023-12-29T10:11:27;101317.60;;;9.70
68745;BMP180;73143;45.456;11.064;2023-12-29T10:14:15;101309.60;;;9.70
68745;BMP180;73143;45.456;11.064;2023-12-29T10:17:03;101301.60;;;9.74
68745;BMP180;73143;45.456;11.064;2023-12-29T10:19:49;101300.40;;;9.80
68745;BMP180;73143;45.456;11.064;2023-12-29T10:22:36;101296.60;;;9.80
68745;BMP180;73143;45.456;11.064;2023-12-29T10:25:18;101297.60;;;9.78
68745;BMP180;73143;45.456;11.064;2023-12-29T10:27:57;101298.20;;;9.76
68745;BMP180;73143;45.456;11.064;2023-12-29T10:30:35;101296.00;;;9.80
68745;BMP180;73143;45.456;11.064;2023-12-29T10:33:13;101299.40;;;9.80
68745;BMP180;73143;45.456;11.064;2023-12-29T10:36:06;101294.80;;;9.80
68745;BMP180;73143;45.456;11.064;2023-12-29T10:38:43;101291.60;;;9.80
68745;BMP180;73143;45.456;11.064;2023-12-29T10:41:22;101288.00;;;9.80
68745;BMP180;73143;45.456;11.064;2023-12-29T10:44:08;101277.40;;;9.82
68745;BMP180;73143;45.456;11.064;2023-12-29T10:46:45;101273.00;;;9.90
68745;BMP180;73143;45.456;11.064;2023-12-29T10:49:22;101267.20;;;9.90
68745;BMP180;73143;45.456;11.064;2023-12-29T10:51:58;101266.80;;;9.90
68745;BMP180;73143;45.456;11.064;2023-12-29T10:54:35;101269.60;;;9.90
68745;BMP180;73143;45.456;11.064;2023-12-29T10:57:12;101270.40;;;10.00
68745;BMP180;73143;45.456;11.064;2023-12-29T11:00:00;101266.80;;;10.00
68745;BMP180;73143;45.456;11.064;2023-12-29T11:02:38;101258.80;;;10.00
68745;BMP180;73143;45.456;11.064;2023-12-29T11:05:15;101250.20;;;10.04
68745;BMP180;73143;45.456;11.064;2023-12-29T11:07:53;101254.20;;;10.10
68745;BMP180;73143;45.456;11.064;2023-12-29T11:10:31;101249.80;;;10.10
68745;BMP180;73143;45.456;11.064;2023-12-29T11:13:09;101249.20;;;10.10
68745;BMP180;73143;45.456;11.064;2023-12-29T11:15:53;101246.00;;;10.10
68745;BMP180;73143;45.456;11.064;2023-12-29T11:18:32;101246.60;;;10.10
68745;BMP180;73143;45.456;11.064;2023-12-29T11:21:11;101245.80;;;10.10
68745;BMP180;73143;45.456;11.064;2023-12-29T11:23:48;101245.60;;;10.10
68745;BMP180;73143;45.456;11.064;2023-12-29T11:26:27;101241.60;;;10.10
68745;BMP180;73143;45.456;11.064;2023-12-29T11:29:05;101241.60;;;10.10
68745;BMP180;73143;45.456;11.064;2023-12-29T11:31:43;101232.40;;;10.10
68745;BMP180;73143;45.456;11.064;2023-12-29T11:34:30;101230.80;;;10.20
68745;BMP180;73143;45.456;11.064;2023-12-29T11:37:26;101230.80;;;10.18
68745;BMP180;73143;45.456;11.064;2023-12-29T11:40:14;101225.40;;;10.16
68745;BMP180;73143;45.456;11.064;2023-12-29T11:42:57;101222.80;;;10.10
68745;BMP180;73143;45.456;11.064;2023-12-29T11:45:39;101222.00;;;10.10
68745;BMP180;73143;45.456;11.064;2023-12-29T11:51:38;101213.60;;;10.10
68745;BMP180;73143;45.456;11.064;2023-12-29T11:54:23;101209.20;;;10.16
68745;BMP180;73143;45.456;11.064;2023-12-29T11:57:01;101208.40;;;10.20
68745;BMP180;73143;45.456;11.064;2023-12-29T11:59:51;101210.40;;;10.20
68745;BMP180;73143;45.456;11.064;2023-12-29T12:02:34;101200.40;;;10.20
68745;BMP180;73143;45.456;11.064;2023-12-29T12:05:46;101190.40;;;10.20
68745;BMP180;73143;45.456;11.064;2023-12-29T12:08:46;101182.80;;;10.20
68745;BMP180;73143;45.456;11.064;2023-12-29T12:11:45;101182.80;;;10.20
68745;BMP180;73143;45.456;11.064;2023-12-29T12:14:51;101176.20;;;10.20
68745;BMP180;73143;45.456;11.064;2023-12-29T12:17:35;101166.00;;;10.12
68745;BMP180;73143;45.456;11.064;2023-12-29T12:20:15;101172.00;;;10.10
68745;BMP180;73143;45.456;11.064;2023-12-29T12:22:59;101165.60;;;10.10
68745;BMP180;73143;45.456;11.064;2023-12-29T12:25:36;101158.40;;;10.10
68745;BMP180;73143;45.456;11.064;2023-12-29T12:28:18;101156.40;;;10.20
68745;BMP180;73143;45.456;11.064;2023-12-29T12:31:06;101148.80;;;10.20
68745;BMP180;73143;45.456;11.064;2023-12-29T12:33:43;101146.40;;;10.30
68745;BMP180;73143;45.456;11.064;2023-12-29T12:36:28;101141.40;;;10.30
68745;BMP180;73143;45.456;11.064;2023-12-29T12:39:06;101132.40;;;10.30
68745;BMP180;73143;45.456;11.064;2023-12-29T12:41:43;101134.60;;;10.38
68745;BMP180;73143;45.456;11.064;2023-12-29T12:44:20;101129.80;;;10.40
68745;BMP180;73143;45.456;11.064;2023-12-29T12:47:09;101130.00;;;10.40
68745;BMP180;73143;45.456;11.064;2023-12-29T12:49:49;101125.40;;;10.40
68745;BMP180;73143;45.456;11.064;2023-12-29T12:52:27;101130.60;;;10.46
68745;BMP180;73143;45.456;11.064;2023-12-29T12:55:11;101128.00;;;10.48
68745;BMP180;73143;45.456;11.064;2023-12-29T12:57:49;101130.60;;;10.50
68745;BMP180;73143;45.456;11.064;2023-12-29T13:00:26;101123.00;;;10.50
68745;BMP180;73143;45.456;11.064;2023-12-29T13:03:06;101120.00;;;10.50
68745;BMP180;73143;45.456;11.064;2023-12-29T13:05:43;101114.40;;;10.50
68745;BMP180;73143;45.456;11.064;2023-12-29T13:08:20;101114.60;;;10.50
68745;BMP180;73143;45.456;11.064;2023-12-29T13:11:08;101113.60;;;10.50
68745;BMP180;73143;45.456;11.064;2023-12-29T13:13:47;101126.80;;;10.52
68745;BMP180;73143;45.456;11.064;2023-12-29T13:16:34;101124.20;;;10.50
68745;BMP180;73143;45.456;11.064;2023-12-29T13:19:23;101120.20;;;10.58
68745;BMP180;73143;45.456;11.064;2023-12-29T13:22:02;101122.80;;;10.60
68745;BMP180;73143;45.456;11.064;2023-12-29T13:24:46;101119.20;;;10.60
68745;BMP180;73143;45.456;11.064;2023-12-29T13:27:24;101118.80;;;10.60
68745;BMP180;73143;45.456;11.064;2023-12-29T13:30:02;101116.60;;;10.60
68745;BMP180;73143;45.456;11.064;2023-12-29T13:32:40;101118.80;;;10.60
68745;BMP180;73143;45.456;11.064;2023-12-29T13:35:25;101118.20;;;10.60
68745;BMP180;73143;45.456;11.064;2023-12-29T13:38:18;101117.20;;;10.60
68745;BMP180;73143;45.456;11.064;2023-12-29T13:41:02;101116.80;;;10.60
68745;BMP180;73143;45.456;11.064;2023-12-29T13:43:44;101114.80;;;10.60
68745;BMP180;73143;45.456;11.064;2023-12-29T13:46:22;101115.40;;;10.60
68745;BMP180;73143;45.456;11.064;2023-12-29T13:49:01;101106.40;;;10.60
68745;BMP180;73143;45.456;11.064;2023-12-29T13:51:40;101106.40;;;10.60
68745;BMP180;73143;45.456;11.064;2023-12-29T13:54:18;101105.80;;;10.60
68745;BMP180;73143;45.456;11.064;2023-12-29T13:57:00;101105.80;;;10.60
68745;BMP180;73143;45.456;11.064;2023-12-29T13:59:36;101103.20;;;10.60
68745;BMP180;73143;45.456;11.064;2023-12-29T14:02:31;101099.80;;;10.60
68745;BMP180;73143;45.456;11.064;2023-12-29T14:05:28;101101.00;;;10.60
68745;BMP180;73143;45.456;11.064;2023-12-29T14:08:22;101101.60;;;10.60
68745;BMP180;73143;45.456;11.064;2023-12-29T14:11:00;101106.00;;;10.56
68745;BMP180;73143;45.456;11.064;2023-12-29T14:13:42;101107.60;;;10.50
68745;BMP180;73143;45.456;11.064;2023-12-29T14:16:18;101110.60;;;10.50
68745;BMP180;73143;45.456;11.064;2023-12-29T14:18:59;101110.80;;;10.50
68745;BMP180;73143;45.456;11.064;2023-12-29T14:21:36;101113.20;;;10.50
68745;BMP180;73143;45.456;11.064;2023-12-29T14:24:16;101118.60;;;10.46
68745;BMP180;73143;45.456;11.064;2023-12-29T14:27:00;101111.40;;;10.50
68745;BMP180;73143;45.456;11.064;2023-12-29T14:29:44;101112.00;;;10.50
68745;BMP180;73143;45.456;11.064;2023-12-29T14:32:21;101121.40;;;10.44
68745;BMP180;73143;45.456;11.064;2023-12-29T14:34:57;101121.80;;;10.42
68745;BMP180;73143;45.456;11.064;2023-12-29T14:37:34;101119.00;;;10.40
68745;BMP180;73143;45.456;11.064;2023-12-29T14:40:17;101117.40;;;10.40
68745;BMP180;73143;45.456;11.064;2023-12-29T14:42:55;101115.20;;;10.40
68745;BMP180;73143;45.456;11.064;2023-12-29T14:45:36;101111.60;;;10.40
68745;BMP180;73143;45.456;11.064;2023-12-29T14:48:19;101111.40;;;10.40
68745;BMP180;73143;45.456;11.064;2023-12-29T14:50:59;101105.20;;;10.40
68745;BMP180;73143;45.456;11.064;2023-12-29T14:53:35;101101.60;;;10.40
68745;BMP180;73143;45.456;11.064;2023-12-29T14:56:13;101090.80;;;10.40
68745;BMP180;73143;45.456;11.064;2023-12-29T14:58:49;101095.40;;;10.40
68745;BMP180;73143;45.456;11.064;2023-12-29T15:01:27;101092.40;;;10.40
68745;BMP180;73143;45.456;11.064;2023-12-29T15:04:04;101097.00;;;10.40